sensor_id;sensor_type;location;lat;lon;timestamp;pressure;altitude;pressure_sealevel;temperature;humidity
80712;BME280;70078;51.596;5.678;2023-12-20T00:02:03;101529.53;;;6.34;96.41
80712;BME280;70078;51.596;5.678;2023-12-20T00:04:28;101489.91;;;6.10;96.50
80712;BME280;70078;51.596;5.678;2023-12-20T00:06:53;101534.59;;;6.37;96.48
80712;BME280;70078;51.596;5.678;2023-12-20T00:09:18;101518.44;;;6.18;96.73
80712;BME280;70078;51.596;5.678;2023-12-20T00:11:44;101497.03;;;5.98;96.67
80712;BME280;70078;51.596;5.678;2023-12-20T00:14:09;101504.84;;;6.00;96.64
80712;BME280;70078;51.596;5.678;2023-12-20T00:16:34;101489.75;;;5.89;96.71
80712;BME280;70078;51.596;5.678;2023-12-20T00:19:00;101449.03;;;5.56;96.04
80712;BME280;70078;51.596;5.678;2023-12-20T00:21:25;101472.66;;;5.71;96.12
80712;BME280;70078;51.596;5.678;2023-12-20T00:23:50;101528.06;;;5.96;95.81
80712;BME280;70078;51.596;5.678;2023-12-20T00:26:16;101547.47;;;5.97;95.76
80712;BME280;70078;51.596;5.678;2023-12-20T00:28:41;101496.25;;;5.63;95.74
80712;BME280;70078;51.596;5.678;2023-12-20T00:31:07;101524.53;;;5.73;96.09
80712;BME280;70078;51.596;5.678;2023-12-20T00:33:33;101447.78;;;5.27;96.13
80712;BME280;70078;51.596;5.678;2023-12-20T00:35:58;101491.03;;;5.50;95.73
80712;BME280;70078;51.596;5.678;2023-12-20T00:38:23;101492.63;;;5.52;95.88
80712;BME280;70078;51.596;5.678;2023-12-20T00:40:49;101525.63;;;5.71;96.18
80712;BME280;70078;51.596;5.678;2023-12-20T00:43:15;101496.94;;;5.53;96.10
80712;BME280;70078;51.596;5.678;2023-12-20T00:45:40;101451.41;;;5.26;95.98
80712;BME280;70078;51.596;5.678;2023-12-20T00:48:05;101512.38;;;5.60;95.99
80712;BME280;70078;51.596;5.678;2023-12-20T00:50:31;101508.25;;;5.55;95.80
80712;BME280;70078;51.596;5.678;2023-12-20T00:52:57;101528.13;;;5.61;95.91
80712;BME280;70078;51.596;5.678;2023-12-20T00:55:22;101517.88;;;5.45;95.92
80712;BME280;70078;51.596;5.678;2023-12-20T00:57:47;101479.78;;;5.24;96.09
80712;BME280;70078;51.596;5.678;2023-12-20T01:00:13;101418.56;;;4.82;96.49
80712;BME280;70078;51.596;5.678;2023-12-20T01:02:38;101494.00;;;5.23;95.97
80712;BME280;70078;51.596;5.678;2023-12-20T01:05:04;101460.69;;;4.96;95.45
80712;BME280;70078;51.596;5.678;2023-12-20T01:07:30;101489.03;;;5.18;95.17
80712;BME280;70078;51.596;5.678;2023-12-20T01:09:55;101528.53;;;5.33;95.48
80712;BME280;70078;51.596;5.678;2023-12-20T01:12:21;101492.22;;;4.99;95.27
80712;BME280;70078;51.596;5.678;2023-12-20T01:14:46;101535.25;;;5.25;95.67
80712;BME280;70078;51.596;5.678;2023-12-20T01:17:14;101526.59;;;5.23;95.84
80712;BME280;70078;51.596;5.678;2023-12-20T01:19:39;101470.50;;;4.83;95.55
80712;BME280;70078;51.596;5.678;2023-12-20T01:22:05;101516.75;;;5.01;96.02
80712;BME280;70078;51.596;5.678;2023-12-20T01:24:30;101527.84;;;5.07;96.12
80712;BME280;70078;51.596;5.678;2023-12-20T01:26:55;101490.94;;;4.81;96.04
80712;BME280;70078;51.596;5.678;2023-12-20T01:29:21;101451.16;;;4.59;95.85
80712;BME280;70078;51.596;5.678;2023-12-20T01:31:46;101536.28;;;5.12;95.62
80712;BME280;70078;51.596;5.678;2023-12-20T01:34:12;101535.09;;;5.16;95.93
80712;BME280;70078;51.596;5.678;2023-12-20T01:36:37;101530.66;;;5.16;96.51
80712;BME280;70078;51.596;5.678;2023-12-20T01:39:02;101485.63;;;4.81;96.73
80712;BME280;70078;51.596;5.678;2023-12-20T01:41:28;101548.34;;;5.16;97.06
80712;BME280;70078;51.596;5.678;2023-12-20T01:43:53;101459.81;;;4.61;97.33
80712;BME280;70078;51.596;5.678;2023-12-20T01:46:19;101463.47;;;4.71;97.21
80712;BME280;70078;51.596;5.678;2023-12-20T01:48:45;101477.50;;;4.84;97.54
80712;BME280;70078;51.596;5.678;2023-12-20T01:51:11;101487.59;;;4.90;97.34
80712;BME280;70078;51.596;5.678;2023-12-20T01:53:36;101534.16;;;5.28;97.47
80712;BME280;70078;51.596;5.678;2023-12-20T01:56:02;101540.56;;;5.25;97.73
80712;BME280;70078;51.596;5.678;2023-12-20T01:58:28;101556.19;;;5.28;97.76
80712;BME280;70078;51.596;5.678;2023-12-20T02:00:54;101551.84;;;5.27;98.05
80712;BME280;70078;51.596;5.678;2023-12-20T02:03:20;101509.81;;;5.12;97.51
80712;BME280;70078;51.596;5.678;2023-12-20T02:05:47;101498.25;;;5.01;97.08
80712;BME280;70078;51.596;5.678;2023-12-20T02:08:13;101450.78;;;4.76;96.87
80712;BME280;70078;51.596;5.678;2023-12-20T02:10:38;101465.03;;;4.73;96.67
80712;BME280;70078;51.596;5.678;2023-12-20T02:13:03;101525.97;;;5.20;96.13
80712;BME280;70078;51.596;5.678;2023-12-20T02:15:29;101499.50;;;4.85;96.23
80712;BME280;70078;51.596;5.678;2023-12-20T02:17:55;101543.72;;;5.07;96.64
80712;BME280;70078;51.596;5.678;2023-12-20T02:20:20;101486.75;;;4.66;96.64
80712;BME280;70078;51.596;5.678;2023-12-20T02:22:45;101514.53;;;4.84;96.65
80712;BME280;70078;51.596;5.678;2023-12-20T02:25:10;101535.41;;;5.00;96.73
80712;BME280;70078;51.596;5.678;2023-12-20T02:27:36;101505.56;;;4.74;96.52
80712;BME280;70078;51.596;5.678;2023-12-20T02:30:01;101443.84;;;4.38;96.54
80712;BME280;70078;51.596;5.678;2023-12-20T02:32:27;101437.75;;;4.25;96.52
80712;BME280;70078;51.596;5.678;2023-12-20T02:34:54;101481.06;;;4.59;96.69
80712;BME280;70078;51.596;5.678;2023-12-20T02:37:19;101466.13;;;4.47;96.55
80712;BME280;70078;51.596;5.678;2023-12-20T02:39:45;101481.53;;;4.53;97.04
80712;BME280;70078;51.596;5.678;2023-12-20T02:42:10;101535.69;;;4.84;96.71
80712;BME280;70078;51.596;5.678;2023-12-20T02:44:35;101482.59;;;4.51;96.98
80712;BME280;70078;51.596;5.678;2023-12-20T02:47:01;101518.66;;;4.76;97.06
80712;BME280;70078;51.596;5.678;2023-12-20T02:49:27;101520.75;;;4.83;97.02
80712;BME280;70078;51.596;5.678;2023-12-20T02:51:52;101507.19;;;4.64;97.51
80712;BME280;70078;51.596;5.678;2023-12-20T02:54:17;101470.28;;;4.38;97.65
80712;BME280;70078;51.596;5.678;2023-12-20T02:56:42;101459.81;;;4.37;97.86
80712;BME280;70078;51.596;5.678;2023-12-20T02:59:08;101477.09;;;4.54;97.99
80712;BME280;70078;51.596;5.678;2023-12-20T03:01:41;101462.28;;;4.51;97.88
80712;BME280;70078;51.596;5.678;2023-12-20T03:04:07;101478.56;;;4.58;97.52
80712;BME280;70078;51.596;5.678;2023-12-20T03:06:32;101478.44;;;4.59;97.71
80712;BME280;70078;51.596;5.678;2023-12-20T03:08:58;101465.09;;;4.37;97.86
80712;BME280;70078;51.596;5.678;2023-12-20T03:11:26;101501.22;;;4.73;97.73
80712;BME280;70078;51.596;5.678;2023-12-20T03:13:52;101455.56;;;4.47;97.47
80712;BME280;70078;51.596;5.678;2023-12-20T03:16:17;101482.44;;;4.65;97.59
80712;BME280;70078;51.596;5.678;2023-12-20T03:18:42;101414.69;;;4.27;97.75
80712;BME280;70078;51.596;5.678;2023-12-20T03:21:07;101431.28;;;4.29;97.79
80712;BME280;70078;51.596;5.678;2023-12-20T03:23:33;101454.06;;;4.43;97.85
80712;BME280;70078;51.596;5.678;2023-12-20T03:25:59;101486.66;;;4.67;97.95
80712;BME280;70078;51.596;5.678;2023-12-20T03:28:25;101499.09;;;4.78;97.70
80712;BME280;70078;51.596;5.678;2023-12-20T03:30:51;101476.19;;;4.66;97.88
80712;BME280;70078;51.596;5.678;2023-12-20T03:33:16;101415.53;;;4.28;97.60
80712;BME280;70078;51.596;5.678;2023-12-20T03:35:41;101430.16;;;4.44;97.93
80712;BME280;70078;51.596;5.678;2023-12-20T03:38:10;101402.44;;;4.26;97.51
80712;BME280;70078;51.596;5.678;2023-12-20T03:40:36;101455.59;;;4.58;97.76
80712;BME280;70078;51.596;5.678;2023-12-20T03:43:01;101460.19;;;4.67;97.68
80712;BME280;70078;51.596;5.678;2023-12-20T03:45:26;101466.91;;;4.84;97.56
80712;BME280;70078;51.596;5.678;2023-12-20T03:47:52;101418.19;;;4.52;97.90
80712;BME280;70078;51.596;5.678;2023-12-20T03:50:24;101483.06;;;4.92;97.70
80712;BME280;70078;51.596;5.678;2023-12-20T03:52:50;101446.38;;;4.64;97.49
80712;BME280;70078;51.596;5.678;2023-12-20T03:55:15;101471.44;;;4.82;98.00
80712;BME280;70078;51.596;5.678;2023-12-20T03:57:40;101502.41;;;4.93;97.96
80712;BME280;70078;51.596;5.678;2023-12-20T04:00:07;101470.22;;;4.75;98.27
80712;BME280;70078;51.596;5.678;2023-12-20T04:02:39;101417.22;;;4.53;98.28
80712;BME280;70078;51.596;5.678;2023-12-20T04:05:05;101459.19;;;4.81;98.41
80712;BME280;70078;51.596;5.678;2023-12-20T04:07:30;101505.25;;;5.14;98.31
80712;BME280;70078;51.596;5.678;2023-12-20T04:09:56;101481.16;;;5.06;98.33
80712;BME280;70078;51.596;5.678;2023-12-20T04:12:21;101473.91;;;4.96;98.72
80712;BME280;70078;51.596;5.678;2023-12-20T04:14:47;101450.69;;;4.89;98.51
80712;BME280;70078;51.596;5.678;2023-12-20T04:17:12;101439.03;;;4.91;98.28
80712;BME280;70078;51.596;5.678;2023-12-20T04:19:37;101488.81;;;5.21;98.52
80712;BME280;70078;51.596;5.678;2023-12-20T04:22:03;101467.22;;;5.04;98.60
80712;BME280;70078;51.596;5.678;2023-12-20T04:24:28;101443.59;;;4.89;98.68
80712;BME280;70078;51.596;5.678;2023-12-20T04:26:53;101491.56;;;5.20;98.80
80712;BME280;70078;51.596;5.678;2023-12-20T04:29:19;101441.69;;;4.91;97.90
80712;BME280;70078;51.596;5.678;2023-12-20T04:31:44;101493.53;;;5.29;97.87
80712;BME280;70078;51.596;5.678;2023-12-20T04:34:09;101477.03;;;5.25;97.95
80712;BME280;70078;51.596;5.678;2023-12-20T04:36:35;101472.00;;;5.34;97.51
80712;BME280;70078;51.596;5.678;2023-12-20T04:39:00;101442.34;;;5.17;97.68
80712;BME280;70078;51.596;5.678;2023-12-20T04:41:25;101472.63;;;5.37;97.86
80712;BME280;70078;51.596;5.678;2023-12-20T04:43:52;101450.16;;;5.19;97.82
80712;BME280;70078;51.596;5.678;2023-12-20T04:46:18;101430.31;;;5.13;97.80
80712;BME280;70078;51.596;5.678;2023-12-20T04:48:43;101460.31;;;5.25;97.94
80712;BME280;70078;51.596;5.678;2023-12-20T04:51:08;101470.44;;;5.42;98.16
80712;BME280;70078;51.596;5.678;2023-12-20T04:53:34;101425.84;;;5.14;97.98
80712;BME280;70078;51.596;5.678;2023-12-20T04:55:59;101462.50;;;5.42;98.01
80712;BME280;70078;51.596;5.678;2023-12-20T04:58:24;101467.78;;;5.42;97.13
80712;BME280;70078;51.596;5.678;2023-12-20T05:00:50;101499.72;;;5.63;97.11
80712;BME280;70078;51.596;5.678;2023-12-20T05:03:15;101397.94;;;5.10;97.03
80712;BME280;70078;51.596;5.678;2023-12-20T05:05:41;101489.84;;;5.65;97.25
80712;BME280;70078;51.596;5.678;2023-12-20T05:08:06;101454.44;;;5.44;97.08
80712;BME280;70078;51.596;5.678;2023-12-20T05:10:31;101394.22;;;5.12;97.48
80712;BME280;70078;51.596;5.678;2023-12-20T05:12:56;101403.25;;;5.21;97.40
80712;BME280;70078;51.596;5.678;2023-12-20T05:15:22;101467.22;;;5.61;97.30
80712;BME280;70078;51.596;5.678;2023-12-20T05:17:47;101384.97;;;5.18;97.53
80712;BME280;70078;51.596;5.678;2023-12-20T05:20:12;101394.84;;;5.27;96.87
80712;BME280;70078;51.596;5.678;2023-12-20T05:22:38;101465.91;;;5.78;96.97
80712;BME280;70078;51.596;5.678;2023-12-20T05:25:04;101428.56;;;5.58;97.00
80712;BME280;70078;51.596;5.678;2023-12-20T05:27:29;101487.75;;;5.93;97.25
80712;BME280;70078;51.596;5.678;2023-12-20T05:29:54;101412.69;;;5.47;97.09
80712;BME280;70078;51.596;5.678;2023-12-20T05:32:23;101472.91;;;6.01;96.75
80712;BME280;70078;51.596;5.678;2023-12-20T05:34:48;101424.47;;;5.66;97.04
80712;BME280;70078;51.596;5.678;2023-12-20T05:37:13;101432.56;;;5.75;96.65
80712;BME280;70078;51.596;5.678;2023-12-20T05:39:39;101425.81;;;5.71;96.68
80712;BME280;70078;51.596;5.678;2023-12-20T05:42:04;101464.59;;;5.95;96.77
80712;BME280;70078;51.596;5.678;2023-12-20T05:44:29;101417.03;;;5.71;96.30
80712;BME280;70078;51.596;5.678;2023-12-20T05:46:55;101448.00;;;5.93;96.22
80712;BME280;70078;51.596;5.678;2023-12-20T05:49:20;101458.00;;;6.00;95.71
80712;BME280;70078;51.596;5.678;2023-12-20T05:51:47;101434.34;;;5.86;95.78
80712;BME280;70078;51.596;5.678;2023-12-20T05:54:12;101462.56;;;5.98;95.68
80712;BME280;70078;51.596;5.678;2023-12-20T05:56:37;101446.63;;;5.87;96.15
80712;BME280;70078;51.596;5.678;2023-12-20T05:59:02;101426.66;;;5.72;95.59
80712;BME280;70078;51.596;5.678;2023-12-20T06:01:28;101480.13;;;6.10;95.62
80712;BME280;70078;51.596;5.678;2023-12-20T06:03:53;101406.53;;;5.58;95.90
80712;BME280;70078;51.596;5.678;2023-12-20T06:06:18;101420.03;;;5.55;96.19
80712;BME280;70078;51.596;5.678;2023-12-20T06:08:44;101409.41;;;5.44;96.51
80712;BME280;70078;51.596;5.678;2023-12-20T06:11:09;101494.97;;;5.91;96.36
80712;BME280;70078;51.596;5.678;2023-12-20T06:13:34;101421.34;;;5.49;96.04
80712;BME280;70078;51.596;5.678;2023-12-20T06:16:00;101510.50;;;6.06;95.08
80712;BME280;70078;51.596;5.678;2023-12-20T06:18:26;101492.28;;;5.79;95.61
80712;BME280;70078;51.596;5.678;2023-12-20T06:20:51;101498.66;;;5.88;95.70
80712;BME280;70078;51.596;5.678;2023-12-20T06:23:16;101499.16;;;5.82;95.78
80712;BME280;70078;51.596;5.678;2023-12-20T06:25:41;101431.94;;;5.49;95.56
80712;BME280;70078;51.596;5.678;2023-12-20T06:28:07;101490.97;;;5.85;95.53
80712;BME280;70078;51.596;5.678;2023-12-20T06:30:33;101499.41;;;5.90;95.07
80712;BME280;70078;51.596;5.678;2023-12-20T06:32:58;101481.69;;;5.79;95.31
80712;BME280;70078;51.596;5.678;2023-12-20T06:35:24;101472.31;;;5.75;95.27
80712;BME280;70078;51.596;5.678;2023-12-20T06:37:49;101452.53;;;5.57;95.58
80712;BME280;70078;51.596;5.678;2023-12-20T06:40:15;101446.16;;;5.60;95.22
80712;BME280;70078;51.596;5.678;2023-12-20T06:42:41;101448.44;;;5.53;95.66
80712;BME280;70078;51.596;5.678;2023-12-20T06:45:06;101396.53;;;5.17;95.38
80712;BME280;70078;51.596;5.678;2023-12-20T06:47:32;101481.34;;;5.84;95.08
80712;BME280;70078;51.596;5.678;2023-12-20T06:49:57;101511.06;;;5.88;95.17
80712;BME280;70078;51.596;5.678;2023-12-20T06:52:22;101488.91;;;5.77;95.34
80712;BME280;70078;51.596;5.678;2023-12-20T06:54:48;101484.44;;;5.67;95.12
80712;BME280;70078;51.596;5.678;2023-12-20T06:57:13;101410.50;;;5.30;95.37
80712;BME280;70078;51.596;5.678;2023-12-20T06:59:42;101400.84;;;5.18;95.56
80712;BME280;70078;51.596;5.678;2023-12-20T07:02:08;101449.03;;;5.56;94.56
80712;BME280;70078;51.596;5.678;2023-12-20T07:04:34;101425.06;;;5.36;94.70
80712;BME280;70078;51.596;5.678;2023-12-20T07:06:59;101448.91;;;5.58;94.78
80712;BME280;70078;51.596;5.678;2023-12-20T07:09:26;101494.91;;;5.79;95.22
80712;BME280;70078;51.596;5.678;2023-12-20T07:11:51;101499.25;;;5.80;95.49
80712;BME280;70078;51.596;5.678;2023-12-20T07:14:16;101480.59;;;5.71;95.30
80712;BME280;70078;51.596;5.678;2023-12-20T07:16:42;101445.88;;;5.40;95.51
80712;BME280;70078;51.596;5.678;2023-12-20T07:19:07;101438.78;;;5.41;95.30
80712;BME280;70078;51.596;5.678;2023-12-20T07:21:32;101433.75;;;5.38;95.35
80712;BME280;70078;51.596;5.678;2023-12-20T07:23:58;101457.56;;;5.49;95.59
80712;BME280;70078;51.596;5.678;2023-12-20T07:26:23;101494.56;;;5.73;95.12
80712;BME280;70078;51.596;5.678;2023-12-20T07:28:49;101467.34;;;5.60;95.24
80712;BME280;70078;51.596;5.678;2023-12-20T07:31:15;101491.06;;;5.72;95.15
80712;BME280;70078;51.596;5.678;2023-12-20T07:33:41;101410.84;;;5.14;94.98
80712;BME280;70078;51.596;5.678;2023-12-20T07:36:06;101466.97;;;5.53;95.56
80712;BME280;70078;51.596;5.678;2023-12-20T07:38:32;101437.06;;;5.28;95.64
80712;BME280;70078;51.596;5.678;2023-12-20T07:40:58;101500.59;;;5.75;94.97
80712;BME280;70078;51.596;5.678;2023-12-20T07:43:23;101420.47;;;5.26;95.37
80712;BME280;70078;51.596;5.678;2023-12-20T07:45:48;101428.91;;;5.32;95.51
80712;BME280;70078;51.596;5.678;2023-12-20T07:48:13;101451.44;;;5.48;95.24
80712;BME280;70078;51.596;5.678;2023-12-20T07:50:39;101439.50;;;5.43;95.09
80712;BME280;70078;51.596;5.678;2023-12-20T07:53:04;101453.13;;;5.49;95.01
80712;BME280;70078;51.596;5.678;2023-12-20T07:55:29;101434.81;;;5.35;95.25
80712;BME280;70078;51.596;5.678;2023-12-20T07:57:56;101482.91;;;5.75;94.96
80712;BME280;70078;51.596;5.678;2023-12-20T08:00:21;101434.97;;;5.45;94.96
80712;BME280;70078;51.596;5.678;2023-12-20T08:02:46;101483.97;;;5.62;95.06
80712;BME280;70078;51.596;5.678;2023-12-20T08:05:12;101422.66;;;5.21;95.31
80712;BME280;70078;51.596;5.678;2023-12-20T08:07:38;101401.81;;;5.17;95.17
80712;BME280;70078;51.596;5.678;2023-12-20T08:10:04;101407.63;;;5.22;94.86
80712;BME280;70078;51.596;5.678;2023-12-20T08:12:30;101443.84;;;5.44;94.63
80712;BME280;70078;51.596;5.678;2023-12-20T08:14:55;101473.38;;;5.62;95.06
80712;BME280;70078;51.596;5.678;2023-12-20T08:17:22;101490.00;;;5.75;95.14
80712;BME280;70078;51.596;5.678;2023-12-20T08:19:48;101501.81;;;5.82;94.87
80712;BME280;70078;51.596;5.678;2023-12-20T08:22:13;101440.84;;;5.48;94.45
80712;BME280;70078;51.596;5.678;2023-12-20T08:24:38;101478.91;;;5.70;94.27
80712;BME280;70078;51.596;5.678;2023-12-20T08:27:04;101454.56;;;5.53;94.96
80712;BME280;70078;51.596;5.678;2023-12-20T08:29:29;101484.69;;;5.75;94.89
80712;BME280;70078;51.596;5.678;2023-12-20T08:31:55;101471.69;;;5.72;94.87
80712;BME280;70078;51.596;5.678;2023-12-20T08:34:21;101464.94;;;5.68;94.70
80712;BME280;70078;51.596;5.678;2023-12-20T08:36:46;101409.31;;;5.45;94.15
80712;BME280;70078;51.596;5.678;2023-12-20T08:39:12;101438.06;;;5.50;94.32
80712;BME280;70078;51.596;5.678;2023-12-20T08:41:37;101502.06;;;6.01;94.04
80712;BME280;70078;51.596;5.678;2023-12-20T08:44:02;101464.47;;;5.85;94.13
80712;BME280;70078;51.596;5.678;2023-12-20T08:46:28;101426.44;;;5.75;94.01
80712;BME280;70078;51.596;5.678;2023-12-20T08:48:54;101496.03;;;6.10;94.27
80712;BME280;70078;51.596;5.678;2023-12-20T08:51:19;101452.19;;;5.84;94.93
80712;BME280;70078;51.596;5.678;2023-12-20T08:53:46;101371.41;;;5.56;94.02
80712;BME280;70078;51.596;5.678;2023-12-20T08:56:12;101455.56;;;6.08;94.07
80712;BME280;70078;51.596;5.678;2023-12-20T08:58:38;101474.97;;;6.20;93.98
80712;BME280;70078;51.596;5.678;2023-12-20T09:01:03;101428.59;;;5.92;94.37
80712;BME280;70078;51.596;5.678;2023-12-20T09:03:28;101488.19;;;6.31;93.53
80712;BME280;70078;51.596;5.678;2023-12-20T09:05:53;101476.03;;;6.29;93.91
80712;BME280;70078;51.596;5.678;2023-12-20T09:08:19;101458.22;;;6.20;94.21
80712;BME280;70078;51.596;5.678;2023-12-20T09:10:44;101433.41;;;6.09;93.64
80712;BME280;70078;51.596;5.678;2023-12-20T09:13:09;101421.59;;;6.14;94.07
80712;BME280;70078;51.596;5.678;2023-12-20T09:15:35;101423.84;;;6.18;93.17
80712;BME280;70078;51.596;5.678;2023-12-20T09:18:00;101422.44;;;6.14;93.69
80712;BME280;70078;51.596;5.678;2023-12-20T09:20:26;101448.28;;;6.33;93.02
80712;BME280;70078;51.596;5.678;2023-12-20T09:22:52;101482.28;;;6.50;92.76
80712;BME280;70078;51.596;5.678;2023-12-20T09:25:17;101458.19;;;6.31;93.71
80712;BME280;70078;51.596;5.678;2023-12-20T09:27:43;101433.75;;;6.27;93.03
80712;BME280;70078;51.596;5.678;2023-12-20T09:30:08;101443.47;;;6.27;92.78
80712;BME280;70078;51.596;5.678;2023-12-20T09:32:34;101423.84;;;6.18;93.09
80712;BME280;70078;51.596;5.678;2023-12-20T09:34:59;101436.00;;;6.32;92.53
80712;BME280;70078;51.596;5.678;2023-12-20T09:37:28;101462.59;;;6.53;92.64
80712;BME280;70078;51.596;5.678;2023-12-20T09:39:54;101424.22;;;6.25;93.42
80712;BME280;70078;51.596;5.678;2023-12-20T09:42:32;101439.38;;;6.34;92.46
80712;BME280;70078;51.596;5.678;2023-12-20T09:45:01;101439.38;;;6.34;92.57
80712;BME280;70078;51.596;5.678;2023-12-20T09:47:28;101456.47;;;6.41;93.02
80712;BME280;70078;51.596;5.678;2023-12-20T09:49:54;101454.56;;;6.43;92.78
80712;BME280;70078;51.596;5.678;2023-12-20T09:52:19;101446.97;;;6.38;92.62
80712;BME280;70078;51.596;5.678;2023-12-20T09:54:49;101462.81;;;6.50;92.45
80712;BME280;70078;51.596;5.678;2023-12-20T09:57:14;101405.19;;;6.20;92.67
80712;BME280;70078;51.596;5.678;2023-12-20T09:59:40;101462.59;;;6.53;92.61
80712;BME280;70078;51.596;5.678;2023-12-20T10:02:11;101451.41;;;6.38;93.14
80712;BME280;70078;51.596;5.678;2023-12-20T10:04:38;101422.25;;;6.27;93.33
80712;BME280;70078;51.596;5.678;2023-12-20T10:07:07;101467.00;;;6.63;93.22
80712;BME280;70078;51.596;5.678;2023-12-20T10:09:33;101417.91;;;6.37;92.62
80712;BME280;70078;51.596;5.678;2023-12-20T10:11:59;101415.06;;;6.29;92.64
80712;BME280;70078;51.596;5.678;2023-12-20T10:14:25;101439.13;;;6.37;92.91
80712;BME280;70078;51.596;5.678;2023-12-20T10:16:50;101423.22;;;6.37;92.14
80712;BME280;70078;51.596;5.678;2023-12-20T10:19:19;101449.22;;;6.54;92.47
80712;BME280;70078;51.596;5.678;2023-12-20T10:21:44;101405.63;;;6.36;92.27
80712;BME280;70078;51.596;5.678;2023-12-20T10:24:16;101461.84;;;6.62;92.21
80712;BME280;70078;51.596;5.678;2023-12-20T10:26:42;101428.88;;;6.44;92.72
80712;BME280;70078;51.596;5.678;2023-12-20T10:29:07;101444.25;;;6.50;92.84
80712;BME280;70078;51.596;5.678;2023-12-20T10:31:33;101429.31;;;6.49;92.32
80712;BME280;70078;51.596;5.678;2023-12-20T10:34:04;101436.78;;;6.55;91.97
80712;BME280;70078;51.596;5.678;2023-12-20T10:36:32;101477.41;;;6.87;92.43
80712;BME280;70078;51.596;5.678;2023-12-20T10:38:58;101437.13;;;6.61;92.54
80712;BME280;70078;51.596;5.678;2023-12-20T10:41:28;101472.84;;;6.89;92.62
80712;BME280;70078;51.596;5.678;2023-12-20T10:43:59;101405.44;;;6.60;91.87
80712;BME280;70078;51.596;5.678;2023-12-20T10:46:26;101407.31;;;6.69;92.28
80712;BME280;70078;51.596;5.678;2023-12-20T10:48:55;101463.97;;;7.00;92.23
80712;BME280;70078;51.596;5.678;2023-12-20T10:51:21;101433.03;;;6.89;91.99
80712;BME280;70078;51.596;5.678;2023-12-20T10:53:48;101359.09;;;6.43;92.18
80712;BME280;70078;51.596;5.678;2023-12-20T10:56:15;101456.50;;;7.05;91.73
80712;BME280;70078;51.596;5.678;2023-12-20T10:58:42;101388.19;;;6.54;92.43
80712;BME280;70078;51.596;5.678;2023-12-20T11:01:08;101374.81;;;6.56;91.96
80712;BME280;70078;51.596;5.678;2023-12-20T11:03:35;101400.19;;;6.70;92.66
80712;BME280;70078;51.596;5.678;2023-12-20T11:06:09;101441.78;;;7.01;92.59
80712;BME280;70078;51.596;5.678;2023-12-20T11:08:49;101446.84;;;7.04;92.42
80712;BME280;70078;51.596;5.678;2023-12-20T11:11:25;101423.78;;;6.84;93.11
80712;BME280;70078;51.596;5.678;2023-12-20T11:13:59;101427.41;;;7.04;93.57
80712;BME280;70078;51.596;5.678;2023-12-20T11:16:26;101390.13;;;6.84;93.09
80712;BME280;70078;51.596;5.678;2023-12-20T11:18:51;101366.09;;;6.86;91.51
80712;BME280;70078;51.596;5.678;2023-12-20T11:21:17;101431.44;;;7.19;91.85
80712;BME280;70078;51.596;5.678;2023-12-20T11:23:42;101367.66;;;6.88;91.90
80712;BME280;70078;51.596;5.678;2023-12-20T11:26:08;101407.25;;;7.01;92.29
80712;BME280;70078;51.596;5.678;2023-12-20T11:28:33;101399.72;;;6.97;92.65
80712;BME280;70078;51.596;5.678;2023-12-20T11:31:01;101430.31;;;7.21;92.19
80712;BME280;70078;51.596;5.678;2023-12-20T11:33:32;101416.34;;;7.19;92.30
80712;BME280;70078;51.596;5.678;2023-12-20T11:36:00;101379.03;;;7.00;91.62
80712;BME280;70078;51.596;5.678;2023-12-20T11:38:26;101381.97;;;6.97;91.88
80712;BME280;70078;51.596;5.678;2023-12-20T11:40:54;101396.13;;;7.07;92.27
80712;BME280;70078;51.596;5.678;2023-12-20T11:43:35;101399.31;;;7.22;91.77
80712;BME280;70078;51.596;5.678;2023-12-20T11:46:08;101406.94;;;7.36;91.57
80712;BME280;70078;51.596;5.678;2023-12-20T11:48:38;101408.28;;;7.31;92.28
80712;BME280;70078;51.596;5.678;2023-12-20T11:51:11;101388.13;;;7.18;92.26
80712;BME280;70078;51.596;5.678;2023-12-20T11:53:37;101401.81;;;7.23;92.77
80712;BME280;70078;51.596;5.678;2023-12-20T11:56:04;101397.47;;;7.22;93.03
80712;BME280;70078;51.596;5.678;2023-12-20T11:58:30;101369.59;;;7.07;93.32
80712;BME280;70078;51.596;5.678;2023-12-20T12:00:56;101365.06;;;6.98;93.39
80712;BME280;70078;51.596;5.678;2023-12-20T12:03:21;101349.94;;;6.89;93.24
80712;BME280;70078;51.596;5.678;2023-12-20T12:05:48;101372.50;;;7.04;93.71
80712;BME280;70078;51.596;5.678;2023-12-20T12:08:13;101385.00;;;7.13;94.03
80712;BME280;70078;51.596;5.678;2023-12-20T12:10:39;101340.72;;;6.93;93.69
80712;BME280;70078;51.596;5.678;2023-12-20T12:13:04;101353.00;;;6.94;94.15
80712;BME280;70078;51.596;5.678;2023-12-20T12:15:30;101340.16;;;6.89;94.09
80712;BME280;70078;51.596;5.678;2023-12-20T12:17:56;101383.88;;;7.16;94.31
80712;BME280;70078;51.596;5.678;2023-12-20T12:20:22;101390.34;;;7.23;95.13
80712;BME280;70078;51.596;5.678;2023-12-20T12:23:02;101353.94;;;7.04;95.44
80712;BME280;70078;51.596;5.678;2023-12-20T12:25:29;101381.69;;;7.21;95.14
80712;BME280;70078;51.596;5.678;2023-12-20T12:27:55;101310.78;;;6.81;94.88
80712;BME280;70078;51.596;5.678;2023-12-20T12:30:21;101325.78;;;6.92;94.94
80712;BME280;70078;51.596;5.678;2023-12-20T12:32:47;101365.63;;;7.22;95.58
80712;BME280;70078;51.596;5.678;2023-12-20T12:35:13;101326.41;;;7.05;95.29
80712;BME280;70078;51.596;5.678;2023-12-20T12:37:40;101349.50;;;7.14;95.04
80712;BME280;70078;51.596;5.678;2023-12-20T12:40:10;101370.13;;;7.32;95.13
80712;BME280;70078;51.596;5.678;2023-12-20T12:42:36;101341.53;;;7.14;95.18
80712;BME280;70078;51.596;5.678;2023-12-20T12:45:02;101330.22;;;7.12;95.22
80712;BME280;70078;51.596;5.678;2023-12-20T12:47:27;101337.22;;;7.13;95.26
80712;BME280;70078;51.596;5.678;2023-12-20T12:49:53;101364.16;;;7.39;94.84
80712;BME280;70078;51.596;5.678;2023-12-20T12:52:19;101371.16;;;7.40;95.00
80712;BME280;70078;51.596;5.678;2023-12-20T12:54:44;101305.41;;;7.02;94.78